createdAt,value
2018-06-03T00:01:11.328Z,19.62
2018-06-03T00:03:40.800Z,19.58
2018-06-03T00:06:10.221Z,19.53
2018-06-03T00:08:39.660Z,19.48
2018-06-03T00:11:09.076Z,19.49
2018-06-03T00:13:38.489Z,19.33
2018-06-03T00:16:07.942Z,19.40
2018-06-03T00:18:37.350Z,19.33
2018-06-03T00:21:23.791Z,19.34
2018-06-03T00:23:53.256Z,19.32
2018-06-03T00:26:22.749Z,19.31
2018-06-03T00:28:52.167Z,19.36
2018-06-03T00:31:21.596Z,19.23
2018-06-03T00:33:51.051Z,19.29
2018-06-03T00:36:37.269Z,19.39
2018-06-03T00:39:08.841Z,19.41
2018-06-03T00:41:38.323Z,19.48
2018-06-03T00:44:07.760Z,19.51
2018-06-03T00:46:37.182Z,19.54
2018-06-03T00:49:06.774Z,19.60
2018-06-03T00:51:36.216Z,19.48
2018-06-03T00:54:05.629Z,19.44
2018-06-03T00:57:42.285Z,19.56
2018-06-03T01:00:11.874Z,19.55
2018-06-03T01:02:41.316Z,19.62
2018-06-03T01:05:10.753Z,19.67
2018-06-03T01:07:40.152Z,19.63
2018-06-03T01:10:09.576Z,19.73
2018-06-03T01:12:39.008Z,19.71
2018-06-03T01:15:08.551Z,19.58
2018-06-03T01:17:37.971Z,19.66
2018-06-03T01:20:07.355Z,19.64
2018-06-03T01:22:36.946Z,19.58
2018-06-03T01:25:06.368Z,19.55
2018-06-03T01:27:35.809Z,19.56
2018-06-03T01:30:05.325Z,19.61
2018-06-03T01:32:34.813Z,19.55
2018-06-03T01:35:04.257Z,19.52
2018-06-03T01:37:33.704Z,19.49
2018-06-03T01:40:03.149Z,19.55
2018-06-03T01:42:32.569Z,19.50
2018-06-03T01:45:01.990Z,19.43
2018-06-03T01:47:31.409Z,19.39
2018-06-03T01:50:00.903Z,19.39
2018-06-03T01:52:30.319Z,19.58
2018-06-03T01:54:59.731Z,19.43
2018-06-03T01:57:29.112Z,19.44
2018-06-03T01:59:58.562Z,19.50
2018-06-03T02:02:27.957Z,19.48
2018-06-03T02:04:57.400Z,19.49
2018-06-03T02:07:26.855Z,19.48
2018-06-03T02:09:56.296Z,19.47
2018-06-03T02:12:25.714Z,19.68
2018-06-03T02:14:55.139Z,19.62
2018-06-03T02:17:24.581Z,19.69
2018-06-03T02:19:54.030Z,19.74
2018-06-03T02:22:23.480Z,19.82
2018-06-03T02:24:52.897Z,19.89
2018-06-03T02:27:22.350Z,19.85
2018-06-03T02:29:51.785Z,19.78
2018-06-03T02:32:21.228Z,19.95
2018-06-03T02:34:51.721Z,19.82
2018-06-03T02:37:21.179Z,19.82
2018-06-03T02:39:50.642Z,19.84
2018-06-03T02:42:20.048Z,19.86
2018-06-03T02:44:49.506Z,19.92
2018-06-03T02:47:18.921Z,19.85
2018-06-03T02:49:48.334Z,19.91
2018-06-03T02:52:17.772Z,19.80
2018-06-03T02:54:47.201Z,19.76
2018-06-03T02:57:16.637Z,19.86
2018-06-03T02:59:46.051Z,19.82
2018-06-03T03:02:15.453Z,19.86
2018-06-03T03:04:44.864Z,19.87
2018-06-03T03:07:14.276Z,19.88
2018-06-03T03:09:43.701Z,19.95
2018-06-03T03:12:13.275Z,19.91
2018-06-03T03:14:42.712Z,19.94
2018-06-03T03:17:12.252Z,19.87
2018-06-03T03:19:41.728Z,19.89
2018-06-03T03:22:11.128Z,19.90
2018-06-03T03:24:40.544Z,19.82
2018-06-03T03:27:09.971Z,19.88
2018-06-03T03:29:39.387Z,19.75
2018-06-03T03:32:08.848Z,19.93
2018-06-03T03:34:38.285Z,19.81
2018-06-03T03:37:07.689Z,19.88
2018-06-03T03:39:37.105Z,19.83
2018-06-03T03:42:06.527Z,19.83
2018-06-03T03:44:35.938Z,19.87
2018-06-03T03:47:05.385Z,19.93
2018-06-03T03:49:34.800Z,19.88
2018-06-03T03:52:04.211Z,19.86
2018-06-03T03:54:33.623Z,19.88
2018-06-03T03:57:03.141Z,19.82
2018-06-03T03:59:32.267Z,19.85
2018-06-03T04:02:01.837Z,19.91
2018-06-03T04:04:31.233Z,19.86
2018-06-03T04:07:00.663Z,19.94
2018-06-03T04:09:30.108Z,20.02
2018-06-03T04:11:59.503Z,20.00
2018-06-03T04:14:28.949Z,20.11
2018-06-03T04:16:58.463Z,20.19
2018-06-03T04:19:27.864Z,20.24
2018-06-03T04:21:57.323Z,20.35
2018-06-03T04:24:26.722Z,20.40
2018-06-03T04:26:56.121Z,20.44
2018-06-03T04:29:25.545Z,20.40
2018-06-03T04:31:55.012Z,20.48
2018-06-03T04:34:24.433Z,20.47
2018-06-03T04:36:53.869Z,20.49
2018-06-03T04:39:23.289Z,20.56
2018-06-03T04:41:52.744Z,20.67
2018-06-03T04:44:22.200Z,20.74
2018-06-03T04:46:51.634Z,20.60
2018-06-03T04:49:21.095Z,20.67
2018-06-03T04:51:50.523Z,20.81
2018-06-03T04:54:19.947Z,20.88
2018-06-03T04:56:49.369Z,20.85
2018-06-03T04:59:18.845Z,20.86
2018-06-03T05:01:48.393Z,20.85
2018-06-03T05:04:17.862Z,20.96
2018-06-03T05:06:47.276Z,21.08
2018-06-03T05:09:17.488Z,21.16
2018-06-03T05:11:46.874Z,21.27
2018-06-03T05:14:16.282Z,21.40
2018-06-03T05:16:45.902Z,21.49
2018-06-03T05:19:15.400Z,21.43
2018-06-03T05:21:44.850Z,21.60
2018-06-03T05:24:14.248Z,21.76
2018-06-03T05:26:43.708Z,21.67
2018-06-03T05:29:13.134Z,21.83
2018-06-03T05:31:42.550Z,21.80
2018-06-03T05:34:11.948Z,21.90
2018-06-03T05:36:41.419Z,22.01
2018-06-03T05:39:10.944Z,21.97
2018-06-03T05:41:40.385Z,22.07
2018-06-03T05:44:09.832Z,22.00
2018-06-03T05:46:39.215Z,21.90
2018-06-03T05:49:08.647Z,21.93
2018-06-03T05:51:38.043Z,21.73
2018-06-03T05:54:07.906Z,21.90
2018-06-03T05:56:37.310Z,22.07
2018-06-03T05:59:06.745Z,22.11
2018-06-03T06:01:36.158Z,22.18
2018-06-03T06:04:05.599Z,22.26
2018-06-03T06:06:35.038Z,22.28
2018-06-03T06:09:06.446Z,22.47
2018-06-03T06:11:35.834Z,22.31
2018-06-03T06:14:05.261Z,22.46
2018-06-03T06:16:34.727Z,22.53
2018-06-03T06:19:04.187Z,22.63
2018-06-03T06:21:33.608Z,22.63
2018-06-03T06:24:03.159Z,22.82
2018-06-03T06:26:32.616Z,23.10
2018-06-03T06:29:02.242Z,23.09
2018-06-03T06:31:31.680Z,23.17
2018-06-03T06:34:01.167Z,22.92
2018-06-03T06:36:31.824Z,22.91
2018-06-03T06:39:02.141Z,23.31
2018-06-03T06:41:31.665Z,23.25
2018-06-03T06:44:01.269Z,23.48
2018-06-03T06:46:30.671Z,23.40
2018-06-03T06:49:00.834Z,23.54
2018-06-03T06:51:30.255Z,23.39
2018-06-03T06:54:00.511Z,23.64
2018-06-03T06:56:30.036Z,23.58
2018-06-03T06:58:59.453Z,23.47
2018-06-03T07:01:28.883Z,23.35
2018-06-03T07:03:58.295Z,23.65
2018-06-03T07:06:27.752Z,23.47
2018-06-03T07:08:57.162Z,23.36
2018-06-03T07:11:26.612Z,23.28
2018-06-03T07:13:56.092Z,23.60
2018-06-03T07:16:25.542Z,23.38
2018-06-03T07:18:54.986Z,23.70
2018-06-03T07:21:24.451Z,23.86
2018-06-03T07:23:54.072Z,23.83
2018-06-03T07:26:23.568Z,23.87
2018-06-03T07:28:52.992Z,24.19
2018-06-03T07:31:22.522Z,24.47
2018-06-03T07:33:51.959Z,24.71
2018-06-03T07:36:22.649Z,24.41
2018-06-03T07:38:52.080Z,24.57
2018-06-03T07:41:21.510Z,24.67
2018-06-03T07:43:51.051Z,24.73
2018-06-03T07:46:20.521Z,24.56
2018-06-03T07:48:49.938Z,24.80
2018-06-03T07:51:19.389Z,24.88
2018-06-03T07:53:48.811Z,24.99
2018-06-03T07:56:18.243Z,24.69
2018-06-03T07:58:47.669Z,24.98
2018-06-03T08:01:17.104Z,24.98
2018-06-03T08:03:46.565Z,25.56
2018-06-03T08:06:15.967Z,25.78
2018-06-03T08:08:45.424Z,25.51
2018-06-03T08:11:14.873Z,25.35
2018-06-03T08:13:44.353Z,25.51
2018-06-03T08:16:13.788Z,25.50
2018-06-03T08:18:43.227Z,25.08
2018-06-03T08:21:12.665Z,25.09
2018-06-03T08:23:42.457Z,24.88
2018-06-03T08:26:12.059Z,25.29
2018-06-03T08:28:41.479Z,25.24
2018-06-03T08:31:10.927Z,25.46
2018-06-03T08:33:40.339Z,25.13
2018-06-03T08:36:09.788Z,25.59
2018-06-03T08:38:39.300Z,25.66
2018-06-03T08:41:08.745Z,25.53
2018-06-03T08:43:38.210Z,25.35
2018-06-03T08:46:07.646Z,25.90
2018-06-03T08:48:37.140Z,26.07
2018-06-03T08:51:06.559Z,26.52
2018-06-03T08:53:35.995Z,26.53
2018-06-03T08:56:05.418Z,26.25
2018-06-03T08:58:34.855Z,26.99
2018-06-03T09:01:04.268Z,26.26
2018-06-03T09:03:33.716Z,26.21
2018-06-03T09:06:03.125Z,26.38
2018-06-03T09:08:32.611Z,26.30
2018-06-03T09:11:02.112Z,26.60
2018-06-03T09:13:31.582Z,26.41
2018-06-03T09:16:01.054Z,27.17
2018-06-03T09:18:30.459Z,27.20
2018-06-03T09:20:59.930Z,27.00
2018-06-03T09:23:29.369Z,26.91
2018-06-03T09:25:58.817Z,27.16
2018-06-03T09:28:28.257Z,27.15
2018-06-03T09:31:02.973Z,27.57
2018-06-03T09:33:32.401Z,27.15
2018-06-03T09:36:01.851Z,27.14
2018-06-03T09:38:31.309Z,27.13
2018-06-03T09:41:00.748Z,27.47
2018-06-03T09:43:30.183Z,27.83
2018-06-03T09:45:59.619Z,28.04
2018-06-03T09:48:29.094Z,28.80
2018-06-03T09:50:58.825Z,28.92
2018-06-03T09:53:28.338Z,29.62
2018-06-03T09:55:57.850Z,29.88
2018-06-03T09:58:27.284Z,29.24
2018-06-03T10:00:56.736Z,29.82
2018-06-03T10:03:26.183Z,30.16
2018-06-03T10:05:55.656Z,30.40
2018-06-03T10:08:25.102Z,30.88
2018-06-03T10:10:54.550Z,31.03
2018-06-03T10:13:23.971Z,31.07
2018-06-03T10:15:53.422Z,31.16
2018-06-03T10:18:22.910Z,31.38
2018-06-03T10:20:52.362Z,31.06
2018-06-03T10:23:21.800Z,31.23
2018-06-03T10:25:51.285Z,31.69
2018-06-03T10:28:20.791Z,32.60
2018-06-03T10:30:50.297Z,33.31
2018-06-03T10:33:19.783Z,32.97
2018-06-03T10:35:49.281Z,33.20
2018-06-03T10:38:18.909Z,33.08
2018-06-03T10:40:48.373Z,34.01
2018-06-03T10:43:17.835Z,34.61
2018-06-03T10:45:47.465Z,34.67
2018-06-03T10:48:17.062Z,36.12
2018-06-03T10:50:46.608Z,36.43
2018-06-03T10:53:16.210Z,36.65
2018-06-03T10:55:45.697Z,36.93
2018-06-03T10:58:15.219Z,36.66
2018-06-03T11:00:44.767Z,36.40
2018-06-03T11:03:14.316Z,38.03
2018-06-03T11:05:43.831Z,38.19
2018-06-03T11:08:13.313Z,38.84
2018-06-03T11:10:42.822Z,39.16
2018-06-03T11:13:12.249Z,38.12
2018-06-03T11:15:41.660Z,38.99
2018-06-03T11:18:11.110Z,39.85
2018-06-03T11:20:40.592Z,39.97
2018-06-03T11:23:10.088Z,40.31
2018-06-03T11:25:39.537Z,38.04
2018-06-03T11:28:08.992Z,40.29
2018-06-03T11:30:38.451Z,41.17
2018-06-03T11:33:07.858Z,41.24
2018-06-03T11:35:37.312Z,42.11
2018-06-03T11:38:07.450Z,41.22
2018-06-03T11:40:36.915Z,40.25
2018-06-03T11:43:06.347Z,41.23
2018-06-03T11:45:35.844Z,39.95
2018-06-03T11:48:05.275Z,41.40
2018-06-03T11:50:34.771Z,41.26
2018-06-03T11:53:04.257Z,41.56
2018-06-03T11:55:33.639Z,41.78
2018-06-03T11:58:51.897Z,41.11
2018-06-03T12:01:21.342Z,38.48
2018-06-03T12:03:50.772Z,37.38
2018-06-03T12:06:20.214Z,35.84
2018-06-03T12:08:49.688Z,35.90
2018-06-03T12:11:18.814Z,37.88
2018-06-03T12:13:48.249Z,40.07
2018-06-03T12:16:17.652Z,39.70
2018-06-03T12:18:47.121Z,40.76
2018-06-03T12:21:16.559Z,39.53
2018-06-03T12:23:45.985Z,39.79
2018-06-03T12:26:15.420Z,40.42
2018-06-03T12:28:44.919Z,41.15
2018-06-03T12:31:14.327Z,40.94
2018-06-03T12:33:43.784Z,39.93
2018-06-03T12:36:13.257Z,39.34
2018-06-03T12:38:42.715Z,41.20
2018-06-03T12:41:12.126Z,38.91
2018-06-03T12:43:41.593Z,39.62
2018-06-03T12:46:11.044Z,39.45
2018-06-03T12:48:40.456Z,37.86
2018-06-03T12:51:09.867Z,36.21
2018-06-03T12:53:39.303Z,35.46
2018-06-03T12:56:08.785Z,35.17
2018-06-03T12:58:38.207Z,34.77
2018-06-03T13:01:07.711Z,34.35
2018-06-03T13:03:37.112Z,34.08
2018-06-03T13:06:06.567Z,33.48
2018-06-03T13:08:35.975Z,33.65
2018-06-03T13:11:05.394Z,33.59
2018-06-03T13:13:34.818Z,33.39
2018-06-03T13:16:04.249Z,34.41
2018-06-03T13:18:33.689Z,33.52
2018-06-03T13:21:03.089Z,33.37
2018-06-03T13:23:32.513Z,33.46
2018-06-03T13:26:01.978Z,33.37
2018-06-03T13:28:31.468Z,33.64
2018-06-03T13:31:00.907Z,33.92
2018-06-03T13:33:30.327Z,33.16
2018-06-03T13:35:59.805Z,32.83
2018-06-03T13:38:29.240Z,33.52
2018-06-03T13:40:58.702Z,33.86
2018-06-03T13:43:28.116Z,34.80
2018-06-03T13:45:57.540Z,35.97
2018-06-03T13:48:26.695Z,37.43
2018-06-03T13:50:56.129Z,38.43
2018-06-03T13:53:25.578Z,37.87
2018-06-03T13:55:55.030Z,37.90
2018-06-03T13:58:24.450Z,37.49
2018-06-03T14:00:53.877Z,38.25
2018-06-03T14:03:23.306Z,37.76
2018-06-03T14:05:52.772Z,38.47
2018-06-03T14:08:22.194Z,38.40
2018-06-03T14:10:51.601Z,39.71
2018-06-03T14:13:21.069Z,39.67
2018-06-03T14:15:50.501Z,39.70
2018-06-03T14:18:19.923Z,40.10
2018-06-03T14:20:49.403Z,40.90
2018-06-03T14:23:18.560Z,41.60
2018-06-03T14:25:47.948Z,41.42
2018-06-03T14:28:17.350Z,41.04
2018-06-03T14:30:46.784Z,41.15
2018-06-03T14:33:16.219Z,41.09
2018-06-03T14:35:45.660Z,41.36
2018-06-03T14:38:15.073Z,40.24
2018-06-03T14:40:44.515Z,40.21
2018-06-03T14:43:13.949Z,40.27
2018-06-03T14:45:43.375Z,40.55
2018-06-03T14:48:12.831Z,41.18
2018-06-03T14:50:42.272Z,42.12
2018-06-03T14:53:11.724Z,39.95
2018-06-03T14:55:41.179Z,41.00
2018-06-03T14:58:10.621Z,41.13
2018-06-03T15:00:40.002Z,41.54
2018-06-03T15:03:09.434Z,42.56
2018-06-03T15:05:38.846Z,43.60
2018-06-03T15:08:08.320Z,44.27
2018-06-03T15:10:37.749Z,44.57
2018-06-03T15:13:07.170Z,43.74
2018-06-03T15:15:36.688Z,41.33
2018-06-03T15:18:06.133Z,41.87
2018-06-03T15:20:35.562Z,41.09
2018-06-03T15:23:05.099Z,43.16
2018-06-03T15:25:34.541Z,43.74
2018-06-03T15:28:03.985Z,43.65
2018-06-03T15:30:33.398Z,42.81
2018-06-03T15:33:02.825Z,41.03
2018-06-03T15:35:32.230Z,39.96
2018-06-03T15:38:01.649Z,41.53
2018-06-03T15:40:31.134Z,41.37
2018-06-03T15:43:00.556Z,41.75
2018-06-03T15:45:29.998Z,41.82
2018-06-03T15:47:59.455Z,42.49
2018-06-03T15:50:29.015Z,41.81
2018-06-03T15:52:58.458Z,41.22
2018-06-03T15:55:27.887Z,42.30
2018-06-03T15:57:57.322Z,42.95
2018-06-03T16:00:26.729Z,42.88
2018-06-03T16:02:56.162Z,41.49
2018-06-03T16:05:25.579Z,39.63
2018-06-03T16:07:55.060Z,38.26
2018-06-03T16:10:24.565Z,38.35
2018-06-03T16:12:53.980Z,39.04
2018-06-03T16:15:23.424Z,39.15
2018-06-03T16:17:52.847Z,40.09
2018-06-03T16:20:22.259Z,40.83
2018-06-03T16:22:51.701Z,40.49
2018-06-03T16:25:21.126Z,40.70
2018-06-03T16:27:50.615Z,40.03
2018-06-03T16:30:19.997Z,39.42
2018-06-03T16:32:49.414Z,38.88
2018-06-03T16:35:18.834Z,39.90
2018-06-03T16:37:47.987Z,38.46
2018-06-03T16:40:17.415Z,38.23
2018-06-03T16:42:46.831Z,37.65
2018-06-03T16:45:16.292Z,38.14
2018-06-03T16:47:45.719Z,38.14
2018-06-03T16:50:15.168Z,38.02
2018-06-03T16:52:44.624Z,37.35
2018-06-03T16:55:14.062Z,37.60
2018-06-03T16:57:43.459Z,37.43
2018-06-03T17:00:12.884Z,37.37
2018-06-03T17:02:42.315Z,36.22
2018-06-03T17:05:11.715Z,36.17
2018-06-03T17:07:41.117Z,35.49
2018-06-03T17:10:10.536Z,34.90
2018-06-03T17:12:39.991Z,34.18
2018-06-03T17:15:09.409Z,33.95
2018-06-03T17:17:38.909Z,33.74
2018-06-03T17:20:08.365Z,33.49
2018-06-03T17:22:37.818Z,33.45
2018-06-03T17:25:07.234Z,32.52
2018-06-03T17:27:36.671Z,32.39
2018-06-03T17:30:06.249Z,32.21
2018-06-03T17:32:35.667Z,31.83
2018-06-03T17:35:05.091Z,31.63
2018-06-03T17:37:34.505Z,31.06
2018-06-03T17:40:04.076Z,30.92
2018-06-03T17:42:33.493Z,30.83
2018-06-03T17:45:02.936Z,31.32
2018-06-03T17:47:32.564Z,31.15
2018-06-03T17:50:02.035Z,31.17
2018-06-03T17:52:31.476Z,30.78
2018-06-03T17:55:00.886Z,30.85
2018-06-03T17:57:30.291Z,30.76
2018-06-03T17:59:59.682Z,30.55
2018-06-03T18:02:29.091Z,30.29
2018-06-03T18:04:58.244Z,30.08
2018-06-03T18:07:27.734Z,30.08
2018-06-03T18:09:57.148Z,29.90
2018-06-03T18:12:26.586Z,29.77
2018-06-03T18:14:56.027Z,29.78
2018-06-03T18:17:25.434Z,29.35
2018-06-03T18:19:54.876Z,29.49
2018-06-03T18:22:24.364Z,29.33
2018-06-03T18:24:53.783Z,29.16
2018-06-03T18:27:23.213Z,28.81
2018-06-03T18:29:52.680Z,28.80
2018-06-03T18:32:22.252Z,28.25
2018-06-03T18:34:51.584Z,28.66
2018-06-03T18:37:21.003Z,28.56
2018-06-03T18:39:50.444Z,28.25
2018-06-03T18:42:20.097Z,27.95
2018-06-03T18:44:49.506Z,27.98
2018-06-03T18:47:18.930Z,28.00
2018-06-03T18:49:48.400Z,27.81
2018-06-03T18:52:17.847Z,27.74
2018-06-03T18:54:47.339Z,27.41
2018-06-03T18:57:16.758Z,27.71
2018-06-03T18:59:46.283Z,27.37
2018-06-03T19:02:15.749Z,27.28
2018-06-03T19:04:45.172Z,27.40
2018-06-03T19:07:14.602Z,27.07
2018-06-03T19:09:46.505Z,27.06
2018-06-03T19:12:21.356Z,26.98
2018-06-03T19:14:52.004Z,26.77
2018-06-03T19:17:25.242Z,26.63
2018-06-03T19:19:55.580Z,26.58
2018-06-03T19:22:25.921Z,26.54
2018-06-03T19:24:55.376Z,26.34
2018-06-03T19:27:24.885Z,25.81
2018-06-03T19:29:54.314Z,25.77
2018-06-03T19:32:23.716Z,25.75
2018-06-03T19:34:53.130Z,25.80
2018-06-03T19:37:22.523Z,25.60
2018-06-03T19:39:51.949Z,25.56
2018-06-03T19:42:21.490Z,25.34
2018-06-03T19:44:51.027Z,25.38
2018-06-03T19:47:20.468Z,25.23
2018-06-03T19:49:49.904Z,25.13
2018-06-03T19:52:19.417Z,25.06
2018-06-03T19:54:49.522Z,24.97
2018-06-03T19:57:18.948Z,24.84
2018-06-03T19:59:48.425Z,24.66
2018-06-03T20:02:17.811Z,24.50
2018-06-03T20:04:47.233Z,24.52
2018-06-03T20:07:16.656Z,24.52
2018-06-03T20:09:46.100Z,24.54
2018-06-03T20:12:15.569Z,24.47
2018-06-03T20:14:45.005Z,24.04
2018-06-03T20:17:14.432Z,24.09
2018-06-03T20:19:43.984Z,24.12
2018-06-03T20:22:13.550Z,23.97
2018-06-03T20:24:42.945Z,23.99
2018-06-03T20:27:12.363Z,23.85
2018-06-03T20:29:41.934Z,23.90
2018-06-03T20:32:11.569Z,23.88
2018-06-03T20:34:41.018Z,23.72
2018-06-03T20:37:10.460Z,23.87
2018-06-03T20:39:40.085Z,23.63
2018-06-03T20:42:09.513Z,23.56
2018-06-03T20:44:39.120Z,23.44
2018-06-03T20:47:08.590Z,23.66
2018-06-03T20:49:38.059Z,23.58
2018-06-03T20:52:07.498Z,23.37
2018-06-03T20:54:41.935Z,23.26
2018-06-03T20:57:11.486Z,23.21
2018-06-03T20:59:40.996Z,23.24
2018-06-03T21:02:11.409Z,23.31
2018-06-03T21:04:40.905Z,23.20
2018-06-03T21:07:10.324Z,23.20
2018-06-03T21:09:39.816Z,23.15
2018-06-03T21:12:09.293Z,23.00
2018-06-03T21:14:38.702Z,22.95
2018-06-03T21:17:08.141Z,22.96
2018-06-03T21:19:37.559Z,22.73
2018-06-03T21:22:06.997Z,22.70
2018-06-03T21:24:36.472Z,22.66
2018-06-03T21:27:05.952Z,22.67
2018-06-03T21:29:35.431Z,22.52
2018-06-03T21:32:04.944Z,22.50
2018-06-03T21:34:34.388Z,22.34
2018-06-03T21:37:03.855Z,22.42
2018-06-03T21:39:33.351Z,22.29
2018-06-03T21:42:02.831Z,22.25
2018-06-03T21:44:32.279Z,22.21
2018-06-03T21:47:01.734Z,22.23
2018-06-03T21:49:31.231Z,22.07
2018-06-03T21:52:00.647Z,22.21
2018-06-03T21:54:30.078Z,22.17
2018-06-03T21:56:59.530Z,22.11
2018-06-03T21:59:28.989Z,22.12
2018-06-03T22:01:58.458Z,21.94
2018-06-03T22:04:27.915Z,21.88
2018-06-03T22:06:57.415Z,21.87
2018-06-03T22:09:26.871Z,21.82
2018-06-03T22:11:56.307Z,21.73
2018-06-03T22:14:25.768Z,21.65
2018-06-03T22:16:55.236Z,21.67
2018-06-03T22:19:24.671Z,21.64
2018-06-03T22:21:54.106Z,21.51
2018-06-03T22:24:23.509Z,21.55
2018-06-03T22:26:52.956Z,21.45
2018-06-03T22:29:22.419Z,21.48
2018-06-03T22:31:51.852Z,21.54
2018-06-03T22:34:21.286Z,21.45
2018-06-03T22:36:50.746Z,21.59
2018-06-03T22:39:20.231Z,21.37
2018-06-03T22:41:49.611Z,21.34
2018-06-03T22:44:19.091Z,21.31
2018-06-03T22:46:48.527Z,21.30
2018-06-03T22:49:17.700Z,21.28
2018-06-03T22:51:47.155Z,21.25
2018-06-03T22:54:16.626Z,21.29
2018-06-03T22:58:01.349Z,21.07
2018-06-03T23:00:33.678Z,21.08
2018-06-03T23:03:08.323Z,20.93
2018-06-03T23:05:37.764Z,21.07
2018-06-03T23:08:07.245Z,21.11
2018-06-03T23:10:36.718Z,20.96
2018-06-03T23:13:06.371Z,20.89
2018-06-03T23:15:35.826Z,20.76
2018-06-03T23:18:05.281Z,20.85
2018-06-03T23:20:34.710Z,20.88
2018-06-03T23:23:04.195Z,20.66
2018-06-03T23:25:33.691Z,20.80
2018-06-03T23:28:03.137Z,20.84
2018-06-03T23:30:32.800Z,20.69
2018-06-03T23:33:02.224Z,20.67
2018-06-03T23:35:31.682Z,20.43
2018-06-03T23:38:01.135Z,20.59
2018-06-03T23:40:30.603Z,20.59
2018-06-03T23:43:00.001Z,20.54
2018-06-03T23:45:29.403Z,20.55
2018-06-03T23:47:58.843Z,20.55
2018-06-03T23:50:28.311Z,20.43
2018-06-03T23:52:57.761Z,20.45
2018-06-03T23:55:27.213Z,20.38
2018-06-03T23:57:56.653Z,20.31
